Lake Holcombe, Wisconsin
Current Conditions -  °F | °C
As of 3:15 PM on Sunday 21 Dec 2014 (Local Time) from KY23 Reporting Station
Light Snow Light Snow  
Wind Chill: 25°   Ceiling: 400
Heat Index: 33°   Visibility: 1.2mi
Dew Point: 32°   Wind: 8mph
Humidity: 99%   Direction: 120°ESE
Pressure: 29.8"   Gusts: NA
Location:  45.2521°N, 91.2394°W
Report Text: KY23 212115Z AUTO 12007KT 1 1/4SM -SN OVC004 00/00 A2980 RMK AO2 T00030001
Loading
Personal Weather Stations






























Interactive Weather Map New forecast layout! Learn more

10-Day Weather Forecast

Advertisements
Track Severe Weather on mobile